sensor_id;sensor_type;location;lat;lon;timestamp;P1;durP1;ratioP1;P2;durP2;ratioP2
7875;SDS011;69649;53.712;9.680;2023-06-14T00:00:13;4.80;;;2.73;;
7875;SDS011;69649;53.712;9.680;2023-06-14T00:02:40;5.07;;;2.60;;
7875;SDS011;69649;53.712;9.680;2023-06-14T00:05:06;4.53;;;2.83;;
7875;SDS011;69649;53.712;9.680;2023-06-14T00:07:34;5.30;;;2.40;;
7875;SDS011;69649;53.712;9.680;2023-06-14T00:10:06;5.97;;;2.63;;
7875;SDS011;69649;53.712;9.680;2023-06-14T00:12:32;4.93;;;2.80;;
7875;SDS011;69649;53.712;9.680;2023-06-14T00:15:00;4.97;;;2.90;;
7875;SDS011;69649;53.712;9.680;2023-06-14T00:17:28;5.97;;;3.27;;
7875;SDS011;69649;53.712;9.680;2023-06-14T00:19:58;7.63;;;3.50;;
7875;SDS011;69649;53.712;9.680;2023-06-14T00:22:25;3.93;;;3.00;;
7875;SDS011;69649;53.712;9.680;2023-06-14T00:24:51;5.60;;;3.00;;
7875;SDS011;69649;53.712;9.680;2023-06-14T00:27:17;5.30;;;3.67;;
7875;SDS011;69649;53.712;9.680;2023-06-14T00:29:43;3.43;;;3.13;;
7875;SDS011;69649;53.712;9.680;2023-06-14T00:32:09;4.70;;;3.13;;
7875;SDS011;69649;53.712;9.680;2023-06-14T00:34:35;5.60;;;3.23;;
7875;SDS011;69649;53.712;9.680;2023-06-14T00:37:01;6.00;;;3.47;;
7875;SDS011;69649;53.712;9.680;2023-06-14T00:39:26;6.53;;;3.33;;
7875;SDS011;69649;53.712;9.680;2023-06-14T00:41:52;8.10;;;3.17;;
7875;SDS011;69649;53.712;9.680;2023-06-14T00:44:18;3.70;;;2.90;;
7875;SDS011;69649;53.712;9.680;2023-06-14T00:46:45;3.23;;;2.60;;
7875;SDS011;69649;53.712;9.680;2023-06-14T00:49:11;4.40;;;2.80;;
7875;SDS011;69649;53.712;9.680;2023-06-14T00:54:27;5.17;;;3.73;;
7875;SDS011;69649;53.712;9.680;2023-06-14T00:56:53;5.60;;;3.53;;
7875;SDS011;69649;53.712;9.680;2023-06-14T00:59:19;4.03;;;3.40;;
7875;SDS011;69649;53.712;9.680;2023-06-14T01:01:44;5.33;;;3.30;;
7875;SDS011;69649;53.712;9.680;2023-06-14T01:04:10;5.40;;;3.63;;
7875;SDS011;69649;53.712;9.680;2023-06-14T01:09:33;5.77;;;3.93;;
7875;SDS011;69649;53.712;9.680;2023-06-14T01:12:09;5.33;;;3.70;;
7875;SDS011;69649;53.712;9.680;2023-06-14T01:14:39;6.20;;;4.17;;
7875;SDS011;69649;53.712;9.680;2023-06-14T01:17:07;8.90;;;3.83;;
7875;SDS011;69649;53.712;9.680;2023-06-14T01:19:35;7.13;;;3.53;;
7875;SDS011;69649;53.712;9.680;2023-06-14T01:22:01;7.60;;;3.60;;
7875;SDS011;69649;53.712;9.680;2023-06-14T01:24:27;7.40;;;4.10;;
7875;SDS011;69649;53.712;9.680;2023-06-14T01:26:55;3.90;;;3.50;;
7875;SDS011;69649;53.712;9.680;2023-06-14T01:29:22;4.43;;;3.47;;
7875;SDS011;69649;53.712;9.680;2023-06-14T01:31:50;5.17;;;3.80;;
7875;SDS011;69649;53.712;9.680;2023-06-14T01:34:17;7.43;;;5.43;;
7875;SDS011;69649;53.712;9.680;2023-06-14T01:36:43;6.77;;;3.70;;
7875;SDS011;69649;53.712;9.680;2023-06-14T01:39:11;4.67;;;3.97;;
7875;SDS011;69649;53.712;9.680;2023-06-14T01:41:39;7.17;;;3.60;;
7875;SDS011;69649;53.712;9.680;2023-06-14T01:44:06;7.57;;;3.80;;
7875;SDS011;69649;53.712;9.680;2023-06-14T01:46:32;5.47;;;4.17;;
7875;SDS011;69649;53.712;9.680;2023-06-14T01:48:58;5.53;;;3.93;;
7875;SDS011;69649;53.712;9.680;2023-06-14T01:53:53;5.93;;;3.63;;
7875;SDS011;69649;53.712;9.680;2023-06-14T01:56:18;6.70;;;3.23;;
7875;SDS011;69649;53.712;9.680;2023-06-14T01:58:45;9.20;;;4.20;;
7875;SDS011;69649;53.712;9.680;2023-06-14T02:01:11;6.83;;;3.93;;
7875;SDS011;69649;53.712;9.680;2023-06-14T02:03:38;5.63;;;3.70;;
7875;SDS011;69649;53.712;9.680;2023-06-14T02:06:04;7.27;;;3.50;;
7875;SDS011;69649;53.712;9.680;2023-06-14T02:08:30;6.60;;;3.53;;
7875;SDS011;69649;53.712;9.680;2023-06-14T02:10:55;8.43;;;3.50;;
7875;SDS011;69649;53.712;9.680;2023-06-14T02:13:21;6.20;;;3.70;;
7875;SDS011;69649;53.712;9.680;2023-06-14T02:15:47;5.87;;;3.63;;
7875;SDS011;69649;53.712;9.680;2023-06-14T02:18:15;8.50;;;3.63;;
7875;SDS011;69649;53.712;9.680;2023-06-14T02:20:41;7.23;;;3.60;;
7875;SDS011;69649;53.712;9.680;2023-06-14T02:23:07;7.03;;;4.13;;
7875;SDS011;69649;53.712;9.680;2023-06-14T02:25:33;7.03;;;4.00;;
7875;SDS011;69649;53.712;9.680;2023-06-14T02:27:59;6.63;;;3.83;;
7875;SDS011;69649;53.712;9.680;2023-06-14T02:30:25;7.13;;;3.87;;
7875;SDS011;69649;53.712;9.680;2023-06-14T02:32:51;5.07;;;3.87;;
7875;SDS011;69649;53.712;9.680;2023-06-14T02:35:18;6.67;;;3.93;;
7875;SDS011;69649;53.712;9.680;2023-06-14T02:37:45;9.00;;;4.30;;
7875;SDS011;69649;53.712;9.680;2023-06-14T02:40:11;7.70;;;4.17;;
7875;SDS011;69649;53.712;9.680;2023-06-14T02:42:37;4.63;;;3.87;;
7875;SDS011;69649;53.712;9.680;2023-06-14T02:45:03;8.00;;;4.53;;
7875;SDS011;69649;53.712;9.680;2023-06-14T02:47:29;8.27;;;4.30;;
7875;SDS011;69649;53.712;9.680;2023-06-14T02:49:55;8.43;;;4.53;;
7875;SDS011;69649;53.712;9.680;2023-06-14T02:52:21;7.27;;;4.07;;
7875;SDS011;69649;53.712;9.680;2023-06-14T02:54:47;8.37;;;3.63;;
7875;SDS011;69649;53.712;9.680;2023-06-14T02:57:14;7.53;;;4.57;;
7875;SDS011;69649;53.712;9.680;2023-06-14T02:59:40;5.90;;;4.33;;
7875;SDS011;69649;53.712;9.680;2023-06-14T03:02:05;9.00;;;4.40;;
7875;SDS011;69649;53.712;9.680;2023-06-14T03:04:31;8.27;;;3.77;;
7875;SDS011;69649;53.712;9.680;2023-06-14T03:07:02;8.00;;;4.40;;
7875;SDS011;69649;53.712;9.680;2023-06-14T03:09:30;6.03;;;3.90;;
7875;SDS011;69649;53.712;9.680;2023-06-14T03:11:56;7.93;;;3.70;;
7875;SDS011;69649;53.712;9.680;2023-06-14T03:14:22;8.17;;;4.53;;
7875;SDS011;69649;53.712;9.680;2023-06-14T03:16:48;5.50;;;4.27;;
7875;SDS011;69649;53.712;9.680;2023-06-14T03:19:15;7.43;;;3.97;;
7875;SDS011;69649;53.712;9.680;2023-06-14T03:21:42;6.63;;;4.40;;
7875;SDS011;69649;53.712;9.680;2023-06-14T03:24:09;7.80;;;5.10;;
7875;SDS011;69649;53.712;9.680;2023-06-14T03:26:35;6.70;;;4.30;;
7875;SDS011;69649;53.712;9.680;2023-06-14T03:29:02;6.40;;;4.70;;
7875;SDS011;69649;53.712;9.680;2023-06-14T03:31:29;6.93;;;4.47;;
7875;SDS011;69649;53.712;9.680;2023-06-14T03:33:58;9.40;;;4.37;;
7875;SDS011;69649;53.712;9.680;2023-06-14T03:36:24;12.83;;;5.50;;
7875;SDS011;69649;53.712;9.680;2023-06-14T03:38:51;6.73;;;4.50;;
7875;SDS011;69649;53.712;9.680;2023-06-14T03:41:16;8.53;;;4.60;;
7875;SDS011;69649;53.712;9.680;2023-06-14T03:43:42;9.30;;;5.57;;
7875;SDS011;69649;53.712;9.680;2023-06-14T03:46:08;10.70;;;4.77;;
7875;SDS011;69649;53.712;9.680;2023-06-14T03:48:34;4.97;;;4.40;;
7875;SDS011;69649;53.712;9.680;2023-06-14T03:50:59;7.13;;;4.80;;
7875;SDS011;69649;53.712;9.680;2023-06-14T03:53:25;7.87;;;4.73;;
7875;SDS011;69649;53.712;9.680;2023-06-14T03:55:53;6.07;;;4.33;;
7875;SDS011;69649;53.712;9.680;2023-06-14T03:58:19;9.90;;;5.10;;
7875;SDS011;69649;53.712;9.680;2023-06-14T04:00:45;10.03;;;5.20;;
7875;SDS011;69649;53.712;9.680;2023-06-14T04:03:11;10.73;;;6.50;;
7875;SDS011;69649;53.712;9.680;2023-06-14T04:05:38;9.40;;;4.93;;
7875;SDS011;69649;53.712;9.680;2023-06-14T04:08:06;8.67;;;4.00;;
7875;SDS011;69649;53.712;9.680;2023-06-14T04:10:34;11.63;;;5.20;;
7875;SDS011;69649;53.712;9.680;2023-06-14T04:13:00;8.63;;;5.17;;
7875;SDS011;69649;53.712;9.680;2023-06-14T04:15:26;10.07;;;5.03;;
7875;SDS011;69649;53.712;9.680;2023-06-14T04:17:54;9.60;;;5.10;;
7875;SDS011;69649;53.712;9.680;2023-06-14T04:20:21;19.17;;;5.30;;
7875;SDS011;69649;53.712;9.680;2023-06-14T04:22:50;11.37;;;5.23;;
7875;SDS011;69649;53.712;9.680;2023-06-14T04:25:18;6.50;;;5.50;;
7875;SDS011;69649;53.712;9.680;2023-06-14T04:27:44;10.27;;;5.00;;
7875;SDS011;69649;53.712;9.680;2023-06-14T04:30:10;11.43;;;5.17;;
7875;SDS011;69649;53.712;9.680;2023-06-14T04:32:36;7.17;;;4.93;;
7875;SDS011;69649;53.712;9.680;2023-06-14T04:35:04;8.17;;;4.87;;
7875;SDS011;69649;53.712;9.680;2023-06-14T04:37:31;9.97;;;5.50;;
7875;SDS011;69649;53.712;9.680;2023-06-14T04:39:57;7.80;;;4.80;;
7875;SDS011;69649;53.712;9.680;2023-06-14T04:42:23;12.80;;;5.57;;
7875;SDS011;69649;53.712;9.680;2023-06-14T04:44:51;10.83;;;5.20;;
7875;SDS011;69649;53.712;9.680;2023-06-14T04:47:19;8.03;;;4.33;;
7875;SDS011;69649;53.712;9.680;2023-06-14T04:49:46;15.03;;;5.40;;
7875;SDS011;69649;53.712;9.680;2023-06-14T04:52:12;6.63;;;4.93;;
7875;SDS011;69649;53.712;9.680;2023-06-14T04:54:41;9.17;;;5.07;;
7875;SDS011;69649;53.712;9.680;2023-06-14T04:57:08;9.20;;;4.53;;
7875;SDS011;69649;53.712;9.680;2023-06-14T04:59:37;12.47;;;5.47;;
7875;SDS011;69649;53.712;9.680;2023-06-14T05:02:03;10.97;;;5.00;;
7875;SDS011;69649;53.712;9.680;2023-06-14T05:04:30;8.73;;;4.80;;
7875;SDS011;69649;53.712;9.680;2023-06-14T05:06:56;8.50;;;4.83;;
7875;SDS011;69649;53.712;9.680;2023-06-14T05:09:22;6.80;;;5.13;;
7875;SDS011;69649;53.712;9.680;2023-06-14T05:11:48;8.93;;;5.33;;
7875;SDS011;69649;53.712;9.680;2023-06-14T05:14:15;5.47;;;4.20;;
7875;SDS011;69649;53.712;9.680;2023-06-14T05:16:41;9.27;;;4.87;;
7875;SDS011;69649;53.712;9.680;2023-06-14T05:19:08;8.47;;;4.30;;
7875;SDS011;69649;53.712;9.680;2023-06-14T05:21:36;8.97;;;4.30;;
7875;SDS011;69649;53.712;9.680;2023-06-14T05:24:02;9.57;;;4.70;;
7875;SDS011;69649;53.712;9.680;2023-06-14T05:26:28;6.47;;;4.20;;
7875;SDS011;69649;53.712;9.680;2023-06-14T05:28:55;7.20;;;4.30;;
7875;SDS011;69649;53.712;9.680;2023-06-14T05:31:26;7.03;;;4.13;;
7875;SDS011;69649;53.712;9.680;2023-06-14T05:33:53;4.83;;;3.37;;
7875;SDS011;69649;53.712;9.680;2023-06-14T05:36:19;9.07;;;4.20;;
7875;SDS011;69649;53.712;9.680;2023-06-14T05:38:46;7.93;;;3.70;;
7875;SDS011;69649;53.712;9.680;2023-06-14T05:41:12;6.43;;;3.83;;
7875;SDS011;69649;53.712;9.680;2023-06-14T05:43:38;5.90;;;3.30;;
7875;SDS011;69649;53.712;9.680;2023-06-14T05:46:04;6.00;;;3.60;;
7875;SDS011;69649;53.712;9.680;2023-06-14T05:48:30;7.23;;;3.57;;
7875;SDS011;69649;53.712;9.680;2023-06-14T05:50:56;7.77;;;3.40;;
7875;SDS011;69649;53.712;9.680;2023-06-14T05:53:22;6.43;;;3.50;;
7875;SDS011;69649;53.712;9.680;2023-06-14T05:55:49;4.77;;;3.00;;
7875;SDS011;69649;53.712;9.680;2023-06-14T05:58:17;8.33;;;3.40;;
7875;SDS011;69649;53.712;9.680;2023-06-14T06:00:42;7.10;;;3.70;;
7875;SDS011;69649;53.712;9.680;2023-06-14T06:03:08;5.30;;;3.30;;
7875;SDS011;69649;53.712;9.680;2023-06-14T06:05:34;3.97;;;2.87;;
7875;SDS011;69649;53.712;9.680;2023-06-14T06:08:00;5.67;;;3.17;;
7875;SDS011;69649;53.712;9.680;2023-06-14T06:10:26;6.40;;;3.13;;
7875;SDS011;69649;53.712;9.680;2023-06-14T06:12:51;6.13;;;2.90;;
7875;SDS011;69649;53.712;9.680;2023-06-14T06:15:19;4.80;;;3.10;;
7875;SDS011;69649;53.712;9.680;2023-06-14T06:17:45;5.30;;;2.80;;
7875;SDS011;69649;53.712;9.680;2023-06-14T06:20:12;5.40;;;2.73;;
7875;SDS011;69649;53.712;9.680;2023-06-14T06:22:38;4.73;;;2.80;;
7875;SDS011;69649;53.712;9.680;2023-06-14T06:25:04;7.10;;;2.90;;
7875;SDS011;69649;53.712;9.680;2023-06-14T06:27:31;4.93;;;3.00;;
7875;SDS011;69649;53.712;9.680;2023-06-14T06:29:58;5.47;;;3.07;;
7875;SDS011;69649;53.712;9.680;2023-06-14T06:32:24;7.23;;;3.33;;
7875;SDS011;69649;53.712;9.680;2023-06-14T06:34:50;4.93;;;2.83;;
7875;SDS011;69649;53.712;9.680;2023-06-14T06:37:17;4.03;;;3.00;;
7875;SDS011;69649;53.712;9.680;2023-06-14T06:39:43;6.13;;;2.90;;
7875;SDS011;69649;53.712;9.680;2023-06-14T06:42:09;6.67;;;2.90;;
7875;SDS011;69649;53.712;9.680;2023-06-14T06:44:36;4.63;;;2.80;;
7875;SDS011;69649;53.712;9.680;2023-06-14T06:47:02;7.43;;;2.70;;
7875;SDS011;69649;53.712;9.680;2023-06-14T06:49:28;2.80;;;2.23;;
7875;SDS011;69649;53.712;9.680;2023-06-14T06:52:00;3.80;;;2.70;;
7875;SDS011;69649;53.712;9.680;2023-06-14T06:54:27;3.53;;;2.70;;
7875;SDS011;69649;53.712;9.680;2023-06-14T06:56:53;4.33;;;2.70;;
7875;SDS011;69649;53.712;9.680;2023-06-14T06:59:19;6.93;;;2.80;;
7875;SDS011;69649;53.712;9.680;2023-06-14T07:01:46;4.13;;;2.60;;
7875;SDS011;69649;53.712;9.680;2023-06-14T07:04:12;5.00;;;2.83;;
7875;SDS011;69649;53.712;9.680;2023-06-14T07:06:38;3.97;;;2.40;;
7875;SDS011;69649;53.712;9.680;2023-06-14T07:09:04;2.53;;;2.00;;
7875;SDS011;69649;53.712;9.680;2023-06-14T07:11:32;4.60;;;3.27;;
7875;SDS011;69649;53.712;9.680;2023-06-14T07:13:58;4.60;;;2.43;;
7875;SDS011;69649;53.712;9.680;2023-06-14T07:16:24;3.43;;;2.30;;
7875;SDS011;69649;53.712;9.680;2023-06-14T07:18:49;4.00;;;2.27;;
7875;SDS011;69649;53.712;9.680;2023-06-14T07:21:16;2.97;;;2.50;;
7875;SDS011;69649;53.712;9.680;2023-06-14T07:23:42;2.93;;;2.10;;
7875;SDS011;69649;53.712;9.680;2023-06-14T07:26:08;6.27;;;2.13;;
7875;SDS011;69649;53.712;9.680;2023-06-14T07:28:34;4.90;;;2.40;;
7875;SDS011;69649;53.712;9.680;2023-06-14T07:30:59;4.60;;;2.50;;
7875;SDS011;69649;53.712;9.680;2023-06-14T07:33:25;4.53;;;2.47;;
7875;SDS011;69649;53.712;9.680;2023-06-14T07:35:51;3.53;;;2.57;;
7875;SDS011;69649;53.712;9.680;2023-06-14T07:38:18;5.17;;;2.10;;
7875;SDS011;69649;53.712;9.680;2023-06-14T07:40:44;2.70;;;1.87;;
7875;SDS011;69649;53.712;9.680;2023-06-14T07:43:10;2.57;;;2.20;;
7875;SDS011;69649;53.712;9.680;2023-06-14T07:45:36;3.37;;;2.53;;
7875;SDS011;69649;53.712;9.680;2023-06-14T07:48:03;4.23;;;2.63;;
7875;SDS011;69649;53.712;9.680;2023-06-14T07:50:29;4.40;;;2.10;;
7875;SDS011;69649;53.712;9.680;2023-06-14T07:55:41;3.63;;;2.00;;
7875;SDS011;69649;53.712;9.680;2023-06-14T07:58:08;3.93;;;2.40;;
7875;SDS011;69649;53.712;9.680;2023-06-14T08:00:34;7.77;;;3.00;;
7875;SDS011;69649;53.712;9.680;2023-06-14T08:03:00;5.37;;;2.63;;
7875;SDS011;69649;53.712;9.680;2023-06-14T08:05:26;4.80;;;2.30;;
7875;SDS011;69649;53.712;9.680;2023-06-14T08:07:53;3.03;;;2.73;;
7875;SDS011;69649;53.712;9.680;2023-06-14T08:10:19;4.80;;;2.43;;
7875;SDS011;69649;53.712;9.680;2023-06-14T08:12:46;4.33;;;2.50;;
7875;SDS011;69649;53.712;9.680;2023-06-14T08:15:11;3.17;;;2.53;;
7875;SDS011;69649;53.712;9.680;2023-06-14T08:17:37;5.13;;;2.37;;
7875;SDS011;69649;53.712;9.680;2023-06-14T08:20:03;5.33;;;2.90;;
7875;SDS011;69649;53.712;9.680;2023-06-14T08:22:31;3.03;;;2.73;;
7875;SDS011;69649;53.712;9.680;2023-06-14T08:24:59;3.70;;;2.20;;
7875;SDS011;69649;53.712;9.680;2023-06-14T08:27:26;3.73;;;2.07;;
7875;SDS011;69649;53.712;9.680;2023-06-14T08:29:53;2.77;;;2.40;;
7875;SDS011;69649;53.712;9.680;2023-06-14T08:32:19;2.40;;;2.10;;
7875;SDS011;69649;53.712;9.680;2023-06-14T08:34:45;4.83;;;2.30;;
7875;SDS011;69649;53.712;9.680;2023-06-14T08:37:11;6.53;;;2.60;;
7875;SDS011;69649;53.712;9.680;2023-06-14T08:39:36;4.33;;;2.80;;
7875;SDS011;69649;53.712;9.680;2023-06-14T08:42:02;3.17;;;2.30;;
7875;SDS011;69649;53.712;9.680;2023-06-14T08:44:29;3.13;;;2.83;;
7875;SDS011;69649;53.712;9.680;2023-06-14T08:46:56;4.10;;;3.00;;
7875;SDS011;69649;53.712;9.680;2023-06-14T08:49:24;4.53;;;2.20;;
7875;SDS011;69649;53.712;9.680;2023-06-14T08:51:58;5.60;;;3.33;;
7875;SDS011;69649;53.712;9.680;2023-06-14T08:57:11;3.40;;;2.20;;
7875;SDS011;69649;53.712;9.680;2023-06-14T08:59:44;2.57;;;2.37;;
7875;SDS011;69649;53.712;9.680;2023-06-14T09:02:10;3.40;;;3.10;;
7875;SDS011;69649;53.712;9.680;2023-06-14T09:04:38;4.90;;;2.73;;
7875;SDS011;69649;53.712;9.680;2023-06-14T09:07:05;3.67;;;2.50;;
7875;SDS011;69649;53.712;9.680;2023-06-14T09:09:32;4.33;;;2.63;;
7875;SDS011;69649;53.712;9.680;2023-06-14T09:11:57;4.03;;;2.57;;
7875;SDS011;69649;53.712;9.680;2023-06-14T09:14:23;4.00;;;2.73;;
7875;SDS011;69649;53.712;9.680;2023-06-14T09:16:57;4.30;;;2.53;;
7875;SDS011;69649;53.712;9.680;2023-06-14T09:19:21;2.57;;;2.33;;
7875;SDS011;69649;53.712;9.680;2023-06-14T09:21:49;7.53;;;2.73;;
7875;SDS011;69649;53.712;9.680;2023-06-14T09:24:15;3.83;;;2.60;;
7875;SDS011;69649;53.712;9.680;2023-06-14T09:26:41;2.97;;;2.47;;
7875;SDS011;69649;53.712;9.680;2023-06-14T09:29:06;3.97;;;2.43;;
7875;SDS011;69649;53.712;9.680;2023-06-14T09:31:32;2.43;;;2.10;;
7875;SDS011;69649;53.712;9.680;2023-06-14T09:33:58;5.07;;;2.57;;
7875;SDS011;69649;53.712;9.680;2023-06-14T09:36:27;2.73;;;2.37;;
7875;SDS011;69649;53.712;9.680;2023-06-14T09:38:58;4.73;;;3.00;;
7875;SDS011;69649;53.712;9.680;2023-06-14T09:41:36;2.83;;;2.53;;
7875;SDS011;69649;53.712;9.680;2023-06-14T09:44:05;6.70;;;2.97;;
7875;SDS011;69649;53.712;9.680;2023-06-14T09:46:32;2.20;;;1.97;;
7875;SDS011;69649;53.712;9.680;2023-06-14T09:49:00;4.33;;;2.50;;
7875;SDS011;69649;53.712;9.680;2023-06-14T09:51:27;2.93;;;2.40;;
7875;SDS011;69649;53.712;9.680;2023-06-14T09:53:58;3.30;;;2.40;;
7875;SDS011;69649;53.712;9.680;2023-06-14T09:56:31;3.60;;;3.30;;
7875;SDS011;69649;53.712;9.680;2023-06-14T09:58:57;2.23;;;2.00;;
7875;SDS011;69649;53.712;9.680;2023-06-14T10:01:24;6.17;;;2.87;;
7875;SDS011;69649;53.712;9.680;2023-06-14T10:03:58;4.83;;;2.87;;
7875;SDS011;69649;53.712;9.680;2023-06-14T10:06:31;4.30;;;2.27;;
7875;SDS011;69649;53.712;9.680;2023-06-14T10:08:59;4.00;;;2.50;;
7875;SDS011;69649;53.712;9.680;2023-06-14T10:11:26;3.40;;;2.60;;
7875;SDS011;69649;53.712;9.680;2023-06-14T10:13:53;3.10;;;2.47;;
7875;SDS011;69649;53.712;9.680;2023-06-14T10:19:32;2.93;;;2.23;;
7875;SDS011;69649;53.712;9.680;2023-06-14T10:22:13;3.00;;;2.20;;
7875;SDS011;69649;53.712;9.680;2023-06-14T10:24:48;3.30;;;2.53;;
7875;SDS011;69649;53.712;9.680;2023-06-14T10:27:15;3.87;;;2.63;;
7875;SDS011;69649;53.712;9.680;2023-06-14T10:32:22;5.47;;;2.63;;
7875;SDS011;69649;53.712;9.680;2023-06-14T10:37:28;2.47;;;1.90;;
7875;SDS011;69649;53.712;9.680;2023-06-14T10:39:54;2.37;;;2.17;;
7875;SDS011;69649;53.712;9.680;2023-06-14T10:42:20;2.70;;;2.00;;
7875;SDS011;69649;53.712;9.680;2023-06-14T10:44:55;4.30;;;2.57;;
7875;SDS011;69649;53.712;9.680;2023-06-14T10:50:07;3.47;;;2.30;;
7875;SDS011;69649;53.712;9.680;2023-06-14T10:52:35;5.13;;;2.27;;
7875;SDS011;69649;53.712;9.680;2023-06-14T10:57:41;3.30;;;2.50;;
7875;SDS011;69649;53.712;9.680;2023-06-14T11:00:11;2.23;;;1.97;;
7875;SDS011;69649;53.712;9.680;2023-06-14T11:05:16;3.30;;;2.87;;
7875;SDS011;69649;53.712;9.680;2023-06-14T11:07:55;4.03;;;2.43;;
7875;SDS011;69649;53.712;9.680;2023-06-14T11:12:53;3.57;;;2.13;;
7875;SDS011;69649;53.712;9.680;2023-06-14T11:15:27;3.80;;;2.53;;
7875;SDS011;69649;53.712;9.680;2023-06-14T11:17:58;2.57;;;1.93;;
7875;SDS011;69649;53.712;9.680;2023-06-14T11:20:26;6.60;;;2.43;;
7875;SDS011;69649;53.712;9.680;2023-06-14T11:22:53;4.57;;;2.97;;
7875;SDS011;69649;53.712;9.680;2023-06-14T11:25:20;4.23;;;2.30;;
7875;SDS011;69649;53.712;9.680;2023-06-14T11:27:46;3.13;;;2.63;;
7875;SDS011;69649;53.712;9.680;2023-06-14T11:30:13;2.93;;;2.13;;
7875;SDS011;69649;53.712;9.680;2023-06-14T11:32:40;2.93;;;2.63;;
7875;SDS011;69649;53.712;9.680;2023-06-14T11:35:06;3.07;;;2.53;;
7875;SDS011;69649;53.712;9.680;2023-06-14T11:37:34;5.23;;;2.30;;
7875;SDS011;69649;53.712;9.680;2023-06-14T11:40:02;6.30;;;2.30;;
7875;SDS011;69649;53.712;9.680;2023-06-14T11:42:31;4.90;;;2.53;;
7875;SDS011;69649;53.712;9.680;2023-06-14T11:44:57;2.70;;;2.30;;
7875;SDS011;69649;53.712;9.680;2023-06-14T11:47:23;3.27;;;1.97;;
7875;SDS011;69649;53.712;9.680;2023-06-14T11:49:50;3.83;;;2.30;;
7875;SDS011;69649;53.712;9.680;2023-06-14T11:52:16;3.17;;;2.27;;
7875;SDS011;69649;53.712;9.680;2023-06-14T11:54:42;5.17;;;2.83;;
7875;SDS011;69649;53.712;9.680;2023-06-14T11:57:08;4.90;;;2.50;;
7875;SDS011;69649;53.712;9.680;2023-06-14T11:59:40;2.93;;;2.30;;
7875;SDS011;69649;53.712;9.680;2023-06-14T12:02:06;3.10;;;2.30;;
7875;SDS011;69649;53.712;9.680;2023-06-14T12:04:33;3.33;;;2.40;;
7875;SDS011;69649;53.712;9.680;2023-06-14T12:07:11;4.60;;;2.30;;
7875;SDS011;69649;53.712;9.680;2023-06-14T12:09:41;3.27;;;2.50;;
7875;SDS011;69649;53.712;9.680;2023-06-14T12:12:08;4.03;;;2.60;;
7875;SDS011;69649;53.712;9.680;2023-06-14T12:14:36;4.87;;;2.67;;
7875;SDS011;69649;53.712;9.680;2023-06-14T12:17:05;3.53;;;2.20;;
7875;SDS011;69649;53.712;9.680;2023-06-14T12:19:32;3.40;;;2.13;;
7875;SDS011;69649;53.712;9.680;2023-06-14T12:22:03;3.23;;;1.90;;
7875;SDS011;69649;53.712;9.680;2023-06-14T12:24:30;3.43;;;1.83;;
7875;SDS011;69649;53.712;9.680;2023-06-14T12:26:58;4.63;;;2.43;;
7875;SDS011;69649;53.712;9.680;2023-06-14T12:29:28;3.53;;;2.20;;
7875;SDS011;69649;53.712;9.680;2023-06-14T12:31:55;3.00;;;2.13;;
7875;SDS011;69649;53.712;9.680;2023-06-14T12:34:23;3.83;;;2.00;;
7875;SDS011;69649;53.712;9.680;2023-06-14T12:36:54;4.37;;;2.10;;
7875;SDS011;69649;53.712;9.680;2023-06-14T12:39:18;2.40;;;2.20;;
7875;SDS011;69649;53.712;9.680;2023-06-14T12:41:44;3.00;;;2.07;;
7875;SDS011;69649;53.712;9.680;2023-06-14T12:44:11;3.70;;;2.30;;
7875;SDS011;69649;53.712;9.680;2023-06-14T12:46:37;4.03;;;2.57;;
7875;SDS011;69649;53.712;9.680;2023-06-14T12:49:05;4.43;;;2.07;;
7875;SDS011;69649;53.712;9.680;2023-06-14T12:51:33;4.47;;;2.40;;
7875;SDS011;69649;53.712;9.680;2023-06-14T12:53:58;3.67;;;1.90;;
7875;SDS011;69649;53.712;9.680;2023-06-14T12:56:24;2.63;;;2.23;;
7875;SDS011;69649;53.712;9.680;2023-06-14T12:58:51;2.90;;;2.40;;
7875;SDS011;69649;53.712;9.680;2023-06-14T13:01:18;2.70;;;2.20;;
7875;SDS011;69649;53.712;9.680;2023-06-14T13:03:45;3.43;;;2.07;;
7875;SDS011;69649;53.712;9.680;2023-06-14T13:06:12;2.73;;;1.93;;
7875;SDS011;69649;53.712;9.680;2023-06-14T13:08:38;5.57;;;2.30;;
7875;SDS011;69649;53.712;9.680;2023-06-14T13:11:03;2.27;;;1.97;;
7875;SDS011;69649;53.712;9.680;2023-06-14T13:13:29;3.83;;;1.90;;
7875;SDS011;69649;53.712;9.680;2023-06-14T13:15:55;5.17;;;2.07;;
7875;SDS011;69649;53.712;9.680;2023-06-14T13:18:21;2.30;;;2.10;;
7875;SDS011;69649;53.712;9.680;2023-06-14T13:20:47;2.03;;;1.83;;
7875;SDS011;69649;53.712;9.680;2023-06-14T13:23:13;3.57;;;2.17;;
7875;SDS011;69649;53.712;9.680;2023-06-14T13:25:39;3.47;;;2.00;;
7875;SDS011;69649;53.712;9.680;2023-06-14T13:28:05;2.23;;;1.80;;
7875;SDS011;69649;53.712;9.680;2023-06-14T13:30:31;2.23;;;2.03;;
7875;SDS011;69649;53.712;9.680;2023-06-14T13:32:57;3.73;;;2.20;;
7875;SDS011;69649;53.712;9.680;2023-06-14T13:35:24;2.33;;;1.97;;
7875;SDS011;69649;53.712;9.680;2023-06-14T13:37:50;4.23;;;1.70;;
7875;SDS011;69649;53.712;9.680;2023-06-14T13:40:16;2.00;;;1.77;;
7875;SDS011;69649;53.712;9.680;2023-06-14T13:42:42;2.83;;;1.50;;
7875;SDS011;69649;53.712;9.680;2023-06-14T13:45:10;3.63;;;2.03;;
7875;SDS011;69649;53.712;9.680;2023-06-14T13:47:37;3.30;;;1.90;;
7875;SDS011;69649;53.712;9.680;2023-06-14T13:50:03;6.53;;;1.87;;
7875;SDS011;69649;53.712;9.680;2023-06-14T13:52:30;4.33;;;1.70;;
7875;SDS011;69649;53.712;9.680;2023-06-14T13:54:56;3.30;;;2.08;;
7875;SDS011;69649;53.712;9.680;2023-06-14T13:57:22;3.17;;;1.90;;
7875;SDS011;69649;53.712;9.680;2023-06-14T13:59:48;2.17;;;1.77;;
7875;SDS011;69649;53.712;9.680;2023-06-14T14:02:14;2.98;;;1.75;;
7875;SDS011;69649;53.712;9.680;2023-06-14T14:04:40;2.02;;;1.65;;
7875;SDS011;69649;53.712;9.680;2023-06-14T14:07:06;4.45;;;1.77;;
7875;SDS011;69649;53.712;9.680;2023-06-14T14:09:33;3.75;;;1.92;;
7875;SDS011;69649;53.712;9.680;2023-06-14T14:12:03;2.20;;;1.50;;
7875;SDS011;69649;53.712;9.680;2023-06-14T14:14:31;2.30;;;1.90;;
7875;SDS011;69649;53.712;9.680;2023-06-14T14:16:57;1.67;;;1.47;;
7875;SDS011;69649;53.712;9.680;2023-06-14T14:19:23;3.90;;;2.27;;
7875;SDS011;69649;53.712;9.680;2023-06-14T14:21:49;2.12;;;1.70;;
7875;SDS011;69649;53.712;9.680;2023-06-14T14:24:15;2.23;;;2.03;;
7875;SDS011;69649;53.712;9.680;2023-06-14T14:26:41;3.50;;;1.98;;
7875;SDS011;69649;53.712;9.680;2023-06-14T14:29:07;1.67;;;1.57;;
7875;SDS011;69649;53.712;9.680;2023-06-14T14:31:35;1.82;;;1.62;;
7875;SDS011;69649;53.712;9.680;2023-06-14T14:34:01;1.50;;;1.40;;
7875;SDS011;69649;53.712;9.680;2023-06-14T14:36:27;3.33;;;2.00;;
7875;SDS011;69649;53.712;9.680;2023-06-14T14:38:53;3.17;;;2.72;;
7875;SDS011;69649;53.712;9.680;2023-06-14T14:41:19;2.27;;;1.60;;
7875;SDS011;69649;53.712;9.680;2023-06-14T14:43:44;1.98;;;1.60;;
7875;SDS011;69649;53.712;9.680;2023-06-14T14:46:10;2.70;;;1.60;;
7875;SDS011;69649;53.712;9.680;2023-06-14T14:48:36;2.17;;;1.70;;
7875;SDS011;69649;53.712;9.680;2023-06-14T14:51:02;3.35;;;1.60;;
7875;SDS011;69649;53.712;9.680;2023-06-14T14:53:28;2.00;;;1.50;;
7875;SDS011;69649;53.712;9.680;2023-06-14T14:55:54;2.02;;;1.60;;
7875;SDS011;69649;53.712;9.680;2023-06-14T14:58:20;1.82;;;1.40;;
7875;SDS011;69649;53.712;9.680;2023-06-14T15:00:46;2.95;;;1.60;;
7875;SDS011;69649;53.712;9.680;2023-06-14T15:03:13;2.27;;;1.82;;
7875;SDS011;69649;53.712;9.680;2023-06-14T15:05:40;2.05;;;1.67;;
7875;SDS011;69649;53.712;9.680;2023-06-14T15:08:06;2.45;;;1.67;;
7875;SDS011;69649;53.712;9.680;2023-06-14T15:10:38;3.85;;;1.80;;
7875;SDS011;69649;53.712;9.680;2023-06-14T15:13:07;2.30;;;1.42;;
7875;SDS011;69649;53.712;9.680;2023-06-14T15:15:33;1.67;;;1.45;;
7875;SDS011;69649;53.712;9.680;2023-06-14T15:18:00;1.70;;;1.40;;
7875;SDS011;69649;53.712;9.680;2023-06-14T15:20:26;1.92;;;1.55;;
7875;SDS011;69649;53.712;9.680;2023-06-14T15:22:53;3.17;;;1.72;;
7875;SDS011;69649;53.712;9.680;2023-06-14T15:25:21;2.75;;;1.87;;
7875;SDS011;69649;53.712;9.680;2023-06-14T15:27:47;2.95;;;1.77;;
7875;SDS011;69649;53.712;9.680;2023-06-14T15:30:13;2.50;;;1.80;;